Nearby METAR Reports

 

KHCR - Heber/Russ Mcdon, Utah, USA
Distance from station: SSW 18mi, 29km
Updated: Fri, 22-Sep-2023 6:35am MDT
Clear
Clear
 Wind from N
Wind: N 3 mph , 6 km/h
Temperature: 43°F , 6°C
Dew Point: 39°F , 4°C
Humidity: 87%
Barometer: 30.02 inHg , 1016.6 hPa
Clouds: Clear
Visibility: 10 miles , 16 km
2023/09/22 12:35 KHCR 221235Z AUTO 35003KT 10SM CLR 06/04 A3002 RMK AO2
KSLC - Salt Lake City, Utah, USA
Distance from station: W 35mi, 57km
Updated: Fri, 22-Sep-2023 5:54am MDT
Mostly cloudy
Mostly cloudy
 Wind from ESE
Wind: ESE 6 mph , 9 km/h
Temperature: 52°F , 11°C
Dew Point: 50°F , 10°C
Humidity: 94%
Barometer: 30.00 inHg , 1015.9 hPa
Clouds: Mostly cloudy
Visibility: 10 miles , 16 km
Cloud details: Few Clouds 3000 ft
Partly cloudy 4700 ft
Mostly cloudy 7000 ft
2023/09/22 11:54 KSLC 221154Z 12005KT 10SM FEW030 SCT047 BKN070 11/10 A3000 RMK AO2 RAE07 SLP135 P0001 60026 70039 T01060100 10133 20094 53018 $
 
KU42 - Salt Lake Muni, Utah, USA
Distance from station: WSW 37mi, 59km
Updated: Fri, 22-Sep-2023 6:35am MDT
Mostly cloudy
Mostly cloudy
 Wind from SW
Wind: SW 7 mph , 11 km/h
Temperature: 50°F , 10°C
Wind Chill: 47°F , 8°C
Dew Point: 45°F , 7°C
Humidity: 82%
Barometer: 30.02 inHg , 1016.6 hPa
Clouds: Mostly cloudy
Visibility: 10 miles , 16 km
Cloud details: Mostly cloudy 2800 ft
Mostly cloudy 3600 ft
Mostly cloudy 10000 ft
2023/09/22 12:35 KU42 221235Z AUTO 22006KT 10SM BKN028 BKN036 BKN100 10/07 A3002 RMK AO1 T01020066
KEVW - Evanston, Wyoming, USA
Distance from station: NNE 40mi, 64km
Updated: Fri, 22-Sep-2023 6:25am MDT
Light rain, Overcast
Light rain, Overcast
 Wind from W
Wind: W 8 mph , 13 km/h
Temperature: 37°F , 3°C
Wind Chill: 31°F , -1°C
Dew Point: 36°F , 2°C
Humidity: 93%
Barometer: 30.06 inHg , 1017.9 hPa
Summary: Light rain
Clouds: Overcast
Visibility: 10 miles , 16 km
Cloud details: Partly cloudy 500 ft
Mostly cloudy 2900 ft
Overcast 3400 ft
2023/09/22 12:25 KEVW 221225Z AUTO 26007KT 10SM -RA SCT005 BKN029 OVC034 03/02 A3006 RMK AO2 P0004 T00280022 $
 
KPVU - Provo Muni, Utah, USA
Distance from station: SSW 41mi, 67km
Updated: Fri, 22-Sep-2023 5:56am MDT
Overcast
Overcast
 Wind from calm
Wind: Calm
Temperature: 52°F , 11°C
Dew Point: 46°F , 8°C
Humidity: 82%
Barometer: 30.02 inHg , 1016.6 hPa
Clouds: Overcast
Visibility: 10 miles , 16 km
Cloud details: Few Clouds 8000 ft
Overcast 9500 ft
2023/09/22 11:56 KPVU 221156Z AUTO 00000KT 10SM FEW080 OVC095 11/08 A3002 RMK AO2 RAE15 SLP139 P0000 60003 70012 T01060083 10128 20106 50008
KHIF - Hill Afb/Ogden, Utah, USA
Distance from station: NW 45mi, 72km
Updated: Fri, 22-Sep-2023 5:55am MDT
Mostly cloudy
Mostly cloudy
 Wind from SSW
Wind: SSW 7 mph , 11 km/h
Temperature: 48°F , 9°C
Wind Chill: 45°F , 7°C
Dew Point: 45°F , 7°C
Humidity: 87%
Barometer: 29.99 inHg , 1015.6 hPa
Clouds: Mostly cloudy
Visibility: 10 miles , 16 km
Cloud details: Mostly cloudy 2600 ft
Mostly cloudy 6500 ft
2023/09/22 11:55 KHIF 221155Z 20006KT 10SM BKN026 BKN065 09/07 A2999 RMK AO2A RAE17RAB32RAE55 SLP132 P0002 60017 70060 T00930066 10109 20086 52017
 
KOGD - Ogden, Utah, USA
Distance from station: NW 50mi, 81km
Updated: Fri, 22-Sep-2023 5:53am MDT
Mostly cloudy
Mostly cloudy
 Wind from SSE
Wind: SSE 8 mph , 13 km/h
Temperature: 52°F , 11°C
Dew Point: 45°F , 7°C
Humidity: 77%
Barometer: 30.00 inHg , 1015.9 hPa
Clouds: Mostly cloudy
Visibility: 10 miles , 16 km
Cloud details: Few Clouds 2800 ft
Partly cloudy 3400 ft
Mostly cloudy 7500 ft
2023/09/22 11:53 KOGD 221153Z AUTO 16007KT 10SM FEW028 SCT034 BKN075 11/07 A3000 RMK AO2 RAE47 SLP130 P0002 60026 70067 T01110067 10133 20111 51019